Terminal Aerodrome Forecast
Issued by NWS

Home | Current Version | Previous Version | Text Only | Print | Product List | Glossary On
Versions: 1 2 3 4 5 6 7 8 9 10 11 12 13 14 15 16 17 18 19 20 21 22 23 24 25 26
652
FTUS45 KLKN 261135
TAFEKO
TAF
KEKO 261135Z 2612/2712 24006KT P6SM FEW120
     FM261900 29013KT P6SM VCTS SCT050 BKN070CB
      TEMPO 2621/2701 VRB15G25KT -TSRA BKN050CB
     FM270200 31010G20KT P6SM VCSH SCT060 BKN120
     FM270600 23005KT P6SM OVC100=

USA.gov is the U.S. government's official web portal to all federal, state and local government web resources and services.